sensor_id;sensor_type;location;lat;lon;timestamp;P1;durP1;ratioP1;P2;durP2;ratioP2
62693;SDS011;48759;52.544;13.418;2022-10-26T00:00:24;14.87;;;10.70;;
62693;SDS011;48759;52.544;13.418;2022-10-26T00:02:52;19.83;;;11.90;;
62693;SDS011;48759;52.544;13.418;2022-10-26T00:05:19;19.33;;;10.53;;
62693;SDS011;48759;52.544;13.418;2022-10-26T00:07:46;21.87;;;12.63;;
62693;SDS011;48759;52.544;13.418;2022-10-26T00:10:14;18.90;;;11.20;;
62693;SDS011;48759;52.544;13.418;2022-10-26T00:12:41;16.37;;;10.90;;
62693;SDS011;48759;52.544;13.418;2022-10-26T00:15:07;17.90;;;12.57;;
62693;SDS011;48759;52.544;13.418;2022-10-26T00:17:35;22.23;;;10.80;;
62693;SDS011;48759;52.544;13.418;2022-10-26T00:20:01;17.67;;;10.43;;
62693;SDS011;48759;52.544;13.418;2022-10-26T00:22:28;17.40;;;10.73;;
62693;SDS011;48759;52.544;13.418;2022-10-26T00:24:54;18.90;;;12.03;;
62693;SDS011;48759;52.544;13.418;2022-10-26T00:27:22;17.63;;;11.10;;
62693;SDS011;48759;52.544;13.418;2022-10-26T00:29:48;21.80;;;11.63;;
62693;SDS011;48759;52.544;13.418;2022-10-26T00:32:15;19.47;;;12.37;;
62693;SDS011;48759;52.544;13.418;2022-10-26T00:34:41;18.73;;;11.03;;
62693;SDS011;48759;52.544;13.418;2022-10-26T00:37:08;14.60;;;10.83;;
62693;SDS011;48759;52.544;13.418;2022-10-26T00:39:34;14.07;;;10.37;;
62693;SDS011;48759;52.544;13.418;2022-10-26T00:42:01;18.67;;;12.00;;
62693;SDS011;48759;52.544;13.418;2022-10-26T00:47:31;19.90;;;11.27;;
62693;SDS011;48759;52.544;13.418;2022-10-26T00:50:03;17.83;;;11.27;;
62693;SDS011;48759;52.544;13.418;2022-10-26T00:52:34;17.97;;;11.07;;
62693;SDS011;48759;52.544;13.418;2022-10-26T00:55:02;15.13;;;11.07;;
62693;SDS011;48759;52.544;13.418;2022-10-26T00:57:29;22.60;;;12.50;;
62693;SDS011;48759;52.544;13.418;2022-10-26T00:59:56;19.90;;;10.63;;
62693;SDS011;48759;52.544;13.418;2022-10-26T01:02:26;18.20;;;11.73;;
62693;SDS011;48759;52.544;13.418;2022-10-26T01:04:52;14.83;;;10.60;;
62693;SDS011;48759;52.544;13.418;2022-10-26T01:07:20;17.80;;;10.50;;
62693;SDS011;48759;52.544;13.418;2022-10-26T01:09:47;19.73;;;11.00;;
62693;SDS011;48759;52.544;13.418;2022-10-26T01:12:14;15.50;;;10.20;;
62693;SDS011;48759;52.544;13.418;2022-10-26T01:14:40;16.90;;;12.10;;
62693;SDS011;48759;52.544;13.418;2022-10-26T01:17:10;19.07;;;10.67;;
62693;SDS011;48759;52.544;13.418;2022-10-26T01:23:04;18.23;;;10.90;;
62693;SDS011;48759;52.544;13.418;2022-10-26T01:25:39;18.87;;;11.40;;
62693;SDS011;48759;52.544;13.418;2022-10-26T01:28:16;15.70;;;12.17;;
62693;SDS011;48759;52.544;13.418;2022-10-26T01:30:58;19.73;;;11.70;;
62693;SDS011;48759;52.544;13.418;2022-10-26T01:33:29;20.53;;;11.27;;
62693;SDS011;48759;52.544;13.418;2022-10-26T01:36:01;19.37;;;10.77;;
62693;SDS011;48759;52.544;13.418;2022-10-26T01:38:34;16.50;;;11.50;;
62693;SDS011;48759;52.544;13.418;2022-10-26T01:41:10;21.90;;;12.30;;
62693;SDS011;48759;52.544;13.418;2022-10-26T01:43:41;18.60;;;12.00;;
62693;SDS011;48759;52.544;13.418;2022-10-26T01:46:15;18.97;;;11.23;;
62693;SDS011;48759;52.544;13.418;2022-10-26T01:48:43;14.40;;;11.30;;
62693;SDS011;48759;52.544;13.418;2022-10-26T01:51:10;17.37;;;11.30;;
62693;SDS011;48759;52.544;13.418;2022-10-26T01:53:41;18.20;;;11.37;;
62693;SDS011;48759;52.544;13.418;2022-10-26T01:56:10;21.03;;;11.83;;
62693;SDS011;48759;52.544;13.418;2022-10-26T01:58:47;19.23;;;11.77;;
62693;SDS011;48759;52.544;13.418;2022-10-26T02:01:36;16.10;;;10.60;;
62693;SDS011;48759;52.544;13.418;2022-10-26T02:04:19;16.77;;;11.27;;
62693;SDS011;48759;52.544;13.418;2022-10-26T02:06:56;17.80;;;11.50;;
62693;SDS011;48759;52.544;13.418;2022-10-26T02:09:29;17.30;;;12.40;;
62693;SDS011;48759;52.544;13.418;2022-10-26T02:12:05;24.23;;;12.70;;
62693;SDS011;48759;52.544;13.418;2022-10-26T02:14:42;19.97;;;11.50;;
62693;SDS011;48759;52.544;13.418;2022-10-26T02:17:17;17.40;;;11.13;;
62693;SDS011;48759;52.544;13.418;2022-10-26T02:19:51;21.90;;;12.30;;
62693;SDS011;48759;52.544;13.418;2022-10-26T02:22:23;20.87;;;11.70;;
62693;SDS011;48759;52.544;13.418;2022-10-26T02:24:52;25.63;;;12.23;;
62693;SDS011;48759;52.544;13.418;2022-10-26T02:27:20;17.60;;;11.63;;
62693;SDS011;48759;52.544;13.418;2022-10-26T02:29:50;20.90;;;12.50;;
62693;SDS011;48759;52.544;13.418;2022-10-26T02:32:21;22.23;;;12.83;;
62693;SDS011;48759;52.544;13.418;2022-10-26T02:34:50;28.00;;;14.00;;
62693;SDS011;48759;52.544;13.418;2022-10-26T02:37:18;19.53;;;11.43;;
62693;SDS011;48759;52.544;13.418;2022-10-26T02:39:48;22.43;;;11.87;;
62693;SDS011;48759;52.544;13.418;2022-10-26T02:42:16;16.60;;;12.17;;
62693;SDS011;48759;52.544;13.418;2022-10-26T02:44:45;22.30;;;11.63;;
62693;SDS011;48759;52.544;13.418;2022-10-26T02:47:15;19.00;;;11.37;;
62693;SDS011;48759;52.544;13.418;2022-10-26T02:49:44;20.23;;;11.80;;
62693;SDS011;48759;52.544;13.418;2022-10-26T02:52:12;20.63;;;10.97;;
62693;SDS011;48759;52.544;13.418;2022-10-26T02:54:48;19.43;;;11.60;;
62693;SDS011;48759;52.544;13.418;2022-10-26T02:57:19;21.13;;;12.73;;
62693;SDS011;48759;52.544;13.418;2022-10-26T02:59:51;16.70;;;11.20;;
62693;SDS011;48759;52.544;13.418;2022-10-26T03:02:19;17.00;;;11.53;;
62693;SDS011;48759;52.544;13.418;2022-10-26T03:04:48;19.13;;;11.40;;
62693;SDS011;48759;52.544;13.418;2022-10-26T03:07:19;17.00;;;11.70;;
62693;SDS011;48759;52.544;13.418;2022-10-26T03:09:46;30.67;;;12.93;;
62693;SDS011;48759;52.544;13.418;2022-10-26T03:12:12;19.33;;;11.77;;
62693;SDS011;48759;52.544;13.418;2022-10-26T03:14:39;15.33;;;10.50;;
62693;SDS011;48759;52.544;13.418;2022-10-26T03:17:06;22.43;;;11.33;;
62693;SDS011;48759;52.544;13.418;2022-10-26T03:19:32;23.47;;;11.83;;
62693;SDS011;48759;52.544;13.418;2022-10-26T03:22:00;19.20;;;11.27;;
62693;SDS011;48759;52.544;13.418;2022-10-26T03:24:27;15.40;;;11.13;;
62693;SDS011;48759;52.544;13.418;2022-10-26T03:26:53;17.70;;;10.83;;
62693;SDS011;48759;52.544;13.418;2022-10-26T03:29:19;19.73;;;10.70;;
62693;SDS011;48759;52.544;13.418;2022-10-26T03:31:46;19.10;;;11.43;;
62693;SDS011;48759;52.544;13.418;2022-10-26T03:34:12;18.60;;;11.73;;
62693;SDS011;48759;52.544;13.418;2022-10-26T03:36:39;25.27;;;11.80;;
62693;SDS011;48759;52.544;13.418;2022-10-26T03:39:07;20.00;;;10.87;;
62693;SDS011;48759;52.544;13.418;2022-10-26T03:41:33;16.10;;;11.17;;
62693;SDS011;48759;52.544;13.418;2022-10-26T03:44:00;20.53;;;11.80;;
62693;SDS011;48759;52.544;13.418;2022-10-26T03:46:26;17.17;;;12.03;;
62693;SDS011;48759;52.544;13.418;2022-10-26T03:48:53;19.90;;;11.30;;
62693;SDS011;48759;52.544;13.418;2022-10-26T03:51:19;15.87;;;10.43;;
62693;SDS011;48759;52.544;13.418;2022-10-26T03:53:46;21.27;;;11.23;;
62693;SDS011;48759;52.544;13.418;2022-10-26T03:56:13;17.47;;;11.40;;
62693;SDS011;48759;52.544;13.418;2022-10-26T03:58:40;19.17;;;12.00;;
62693;SDS011;48759;52.544;13.418;2022-10-26T04:01:06;16.43;;;10.43;;
62693;SDS011;48759;52.544;13.418;2022-10-26T04:03:33;17.57;;;10.93;;
62693;SDS011;48759;52.544;13.418;2022-10-26T04:05:59;20.20;;;12.00;;
62693;SDS011;48759;52.544;13.418;2022-10-26T04:08:26;18.10;;;12.03;;
62693;SDS011;48759;52.544;13.418;2022-10-26T04:10:52;13.60;;;10.33;;
62693;SDS011;48759;52.544;13.418;2022-10-26T04:13:20;16.67;;;10.90;;
62693;SDS011;48759;52.544;13.418;2022-10-26T04:15:47;16.60;;;11.23;;
62693;SDS011;48759;52.544;13.418;2022-10-26T04:18:13;21.03;;;12.90;;
62693;SDS011;48759;52.544;13.418;2022-10-26T04:20:40;13.00;;;9.73;;
62693;SDS011;48759;52.544;13.418;2022-10-26T04:23:08;16.20;;;10.90;;
62693;SDS011;48759;52.544;13.418;2022-10-26T04:25:37;16.37;;;11.47;;
62693;SDS011;48759;52.544;13.418;2022-10-26T04:28:04;18.37;;;11.37;;
62693;SDS011;48759;52.544;13.418;2022-10-26T04:30:34;17.90;;;9.97;;
62693;SDS011;48759;52.544;13.418;2022-10-26T04:33:01;18.80;;;11.03;;
62693;SDS011;48759;52.544;13.418;2022-10-26T04:35:28;19.23;;;10.83;;
62693;SDS011;48759;52.544;13.418;2022-10-26T04:37:58;15.73;;;9.50;;
62693;SDS011;48759;52.544;13.418;2022-10-26T04:40:25;16.43;;;11.10;;
62693;SDS011;48759;52.544;13.418;2022-10-26T04:42:51;16.97;;;10.47;;
62693;SDS011;48759;52.544;13.418;2022-10-26T04:45:18;20.97;;;10.87;;
62693;SDS011;48759;52.544;13.418;2022-10-26T04:47:46;17.80;;;11.43;;
62693;SDS011;48759;52.544;13.418;2022-10-26T04:50:12;20.27;;;10.60;;
62693;SDS011;48759;52.544;13.418;2022-10-26T04:52:39;15.00;;;11.10;;
62693;SDS011;48759;52.544;13.418;2022-10-26T04:55:06;21.67;;;11.70;;
62693;SDS011;48759;52.544;13.418;2022-10-26T04:57:33;17.60;;;10.13;;
62693;SDS011;48759;52.544;13.418;2022-10-26T05:00:00;16.37;;;10.97;;
62693;SDS011;48759;52.544;13.418;2022-10-26T05:02:29;21.33;;;11.53;;
62693;SDS011;48759;52.544;13.418;2022-10-26T05:04:57;16.37;;;11.33;;
62693;SDS011;48759;52.544;13.418;2022-10-26T05:07:23;16.07;;;11.20;;
62693;SDS011;48759;52.544;13.418;2022-10-26T05:09:50;18.40;;;11.97;;
62693;SDS011;48759;52.544;13.418;2022-10-26T05:12:16;17.20;;;11.83;;
62693;SDS011;48759;52.544;13.418;2022-10-26T05:14:43;18.47;;;11.60;;
62693;SDS011;48759;52.544;13.418;2022-10-26T05:17:09;21.93;;;11.50;;
62693;SDS011;48759;52.544;13.418;2022-10-26T05:19:35;15.50;;;11.23;;
62693;SDS011;48759;52.544;13.418;2022-10-26T05:22:03;21.73;;;11.77;;
62693;SDS011;48759;52.544;13.418;2022-10-26T05:24:30;21.40;;;12.33;;
62693;SDS011;48759;52.544;13.418;2022-10-26T05:26:56;19.77;;;12.23;;
62693;SDS011;48759;52.544;13.418;2022-10-26T05:29:23;17.90;;;11.33;;
62693;SDS011;48759;52.544;13.418;2022-10-26T05:31:49;18.43;;;12.17;;
62693;SDS011;48759;52.544;13.418;2022-10-26T05:34:16;23.07;;;13.33;;
62693;SDS011;48759;52.544;13.418;2022-10-26T05:36:42;22.13;;;11.80;;
62693;SDS011;48759;52.544;13.418;2022-10-26T05:39:10;22.77;;;11.30;;
62693;SDS011;48759;52.544;13.418;2022-10-26T05:41:37;16.50;;;11.70;;
62693;SDS011;48759;52.544;13.418;2022-10-26T05:44:03;18.57;;;12.30;;
62693;SDS011;48759;52.544;13.418;2022-10-26T05:46:30;21.77;;;13.73;;
62693;SDS011;48759;52.544;13.418;2022-10-26T05:48:56;28.10;;;12.93;;
62693;SDS011;48759;52.544;13.418;2022-10-26T05:51:23;20.10;;;12.77;;
62693;SDS011;48759;52.544;13.418;2022-10-26T05:53:50;20.97;;;12.80;;
62693;SDS011;48759;52.544;13.418;2022-10-26T05:56:20;23.00;;;12.97;;
62693;SDS011;48759;52.544;13.418;2022-10-26T05:59:00;18.43;;;12.00;;
62693;SDS011;48759;52.544;13.418;2022-10-26T06:01:28;20.13;;;10.90;;
62693;SDS011;48759;52.544;13.418;2022-10-26T06:04:06;19.43;;;12.07;;
62693;SDS011;48759;52.544;13.418;2022-10-26T06:06:41;19.83;;;12.10;;
62693;SDS011;48759;52.544;13.418;2022-10-26T06:09:10;18.90;;;11.80;;
62693;SDS011;48759;52.544;13.418;2022-10-26T06:11:40;20.70;;;11.90;;
62693;SDS011;48759;52.544;13.418;2022-10-26T06:14:07;18.00;;;11.10;;
62693;SDS011;48759;52.544;13.418;2022-10-26T06:16:37;19.90;;;11.70;;
62693;SDS011;48759;52.544;13.418;2022-10-26T06:19:18;17.17;;;10.80;;
62693;SDS011;48759;52.544;13.418;2022-10-26T06:21:55;23.00;;;11.10;;
62693;SDS011;48759;52.544;13.418;2022-10-26T06:24:35;23.30;;;12.60;;
62693;SDS011;48759;52.544;13.418;2022-10-26T06:27:15;16.90;;;10.23;;
62693;SDS011;48759;52.544;13.418;2022-10-26T06:29:53;17.33;;;11.17;;
62693;SDS011;48759;52.544;13.418;2022-10-26T06:32:23;21.60;;;12.27;;
62693;SDS011;48759;52.544;13.418;2022-10-26T06:34:51;14.97;;;9.80;;
62693;SDS011;48759;52.544;13.418;2022-10-26T06:37:23;14.43;;;9.60;;
62693;SDS011;48759;52.544;13.418;2022-10-26T06:39:51;18.97;;;11.23;;
62693;SDS011;48759;52.544;13.418;2022-10-26T06:42:19;15.20;;;11.00;;
62693;SDS011;48759;52.544;13.418;2022-10-26T06:44:46;22.37;;;11.03;;
62693;SDS011;48759;52.544;13.418;2022-10-26T06:47:15;14.77;;;10.77;;
62693;SDS011;48759;52.544;13.418;2022-10-26T06:49:54;15.90;;;10.10;;
62693;SDS011;48759;52.544;13.418;2022-10-26T06:52:27;14.70;;;10.90;;
62693;SDS011;48759;52.544;13.418;2022-10-26T06:54:58;13.63;;;9.57;;
62693;SDS011;48759;52.544;13.418;2022-10-26T06:57:27;15.00;;;10.70;;
62693;SDS011;48759;52.544;13.418;2022-10-26T06:59:58;18.20;;;11.37;;
62693;SDS011;48759;52.544;13.418;2022-10-26T07:02:27;14.97;;;11.40;;
62693;SDS011;48759;52.544;13.418;2022-10-26T07:04:53;20.93;;;9.73;;
62693;SDS011;48759;52.544;13.418;2022-10-26T07:07:20;15.23;;;10.10;;
62693;SDS011;48759;52.544;13.418;2022-10-26T07:09:48;17.70;;;11.40;;
62693;SDS011;48759;52.544;13.418;2022-10-26T07:12:15;15.27;;;10.03;;
62693;SDS011;48759;52.544;13.418;2022-10-26T07:14:43;19.03;;;10.40;;
62693;SDS011;48759;52.544;13.418;2022-10-26T07:17:10;21.30;;;11.50;;
62693;SDS011;48759;52.544;13.418;2022-10-26T07:19:36;22.43;;;11.20;;
62693;SDS011;48759;52.544;13.418;2022-10-26T07:22:04;15.03;;;10.60;;
62693;SDS011;48759;52.544;13.418;2022-10-26T07:24:30;14.67;;;10.50;;
62693;SDS011;48759;52.544;13.418;2022-10-26T07:26:57;15.77;;;11.20;;
62693;SDS011;48759;52.544;13.418;2022-10-26T07:29:25;15.40;;;11.10;;
62693;SDS011;48759;52.544;13.418;2022-10-26T07:31:53;15.73;;;11.33;;
62693;SDS011;48759;52.544;13.418;2022-10-26T07:34:19;22.50;;;11.30;;
62693;SDS011;48759;52.544;13.418;2022-10-26T07:36:46;20.63;;;10.80;;
62693;SDS011;48759;52.544;13.418;2022-10-26T07:39:12;20.77;;;11.97;;
62693;SDS011;48759;52.544;13.418;2022-10-26T07:41:39;14.40;;;9.60;;
62693;SDS011;48759;52.544;13.418;2022-10-26T07:44:05;16.10;;;9.27;;
62693;SDS011;48759;52.544;13.418;2022-10-26T07:46:32;15.20;;;10.20;;
62693;SDS011;48759;52.544;13.418;2022-10-26T07:48:59;18.43;;;10.30;;
62693;SDS011;48759;52.544;13.418;2022-10-26T07:51:26;17.40;;;10.50;;
62693;SDS011;48759;52.544;13.418;2022-10-26T07:53:53;20.20;;;11.13;;
62693;SDS011;48759;52.544;13.418;2022-10-26T07:56:19;15.73;;;10.97;;
62693;SDS011;48759;52.544;13.418;2022-10-26T07:58:46;20.20;;;11.40;;
62693;SDS011;48759;52.544;13.418;2022-10-26T08:01:14;14.60;;;10.83;;
62693;SDS011;48759;52.544;13.418;2022-10-26T08:03:41;16.27;;;10.70;;
62693;SDS011;48759;52.544;13.418;2022-10-26T08:06:09;19.90;;;12.43;;
62693;SDS011;48759;52.544;13.418;2022-10-26T08:08:36;20.90;;;11.50;;
62693;SDS011;48759;52.544;13.418;2022-10-26T08:11:03;18.30;;;11.47;;
62693;SDS011;48759;52.544;13.418;2022-10-26T08:13:31;22.70;;;11.30;;
62693;SDS011;48759;52.544;13.418;2022-10-26T08:15:59;16.40;;;10.43;;
62693;SDS011;48759;52.544;13.418;2022-10-26T08:18:27;15.23;;;11.03;;
62693;SDS011;48759;52.544;13.418;2022-10-26T08:20:54;18.73;;;10.87;;
62693;SDS011;48759;52.544;13.418;2022-10-26T08:23:27;21.33;;;12.20;;
62693;SDS011;48759;52.544;13.418;2022-10-26T08:25:56;15.60;;;10.97;;
62693;SDS011;48759;52.544;13.418;2022-10-26T08:28:23;13.93;;;10.93;;
62693;SDS011;48759;52.544;13.418;2022-10-26T08:30:49;18.53;;;11.20;;
62693;SDS011;48759;52.544;13.418;2022-10-26T08:33:16;14.60;;;11.10;;
62693;SDS011;48759;52.544;13.418;2022-10-26T08:35:42;18.07;;;11.60;;
62693;SDS011;48759;52.544;13.418;2022-10-26T08:38:09;16.27;;;11.63;;
62693;SDS011;48759;52.544;13.418;2022-10-26T08:40:37;19.03;;;11.83;;
62693;SDS011;48759;52.544;13.418;2022-10-26T08:43:09;17.63;;;11.63;;
62693;SDS011;48759;52.544;13.418;2022-10-26T08:45:42;19.60;;;11.73;;
62693;SDS011;48759;52.544;13.418;2022-10-26T08:48:14;20.40;;;11.33;;
62693;SDS011;48759;52.544;13.418;2022-10-26T08:50:45;14.10;;;10.97;;
62693;SDS011;48759;52.544;13.418;2022-10-26T08:53:17;18.07;;;11.50;;
62693;SDS011;48759;52.544;13.418;2022-10-26T08:55:51;25.07;;;10.83;;
62693;SDS011;48759;52.544;13.418;2022-10-26T08:58:21;19.97;;;11.33;;
62693;SDS011;48759;52.544;13.418;2022-10-26T09:00:52;18.43;;;10.57;;
62693;SDS011;48759;52.544;13.418;2022-10-26T09:03:19;18.77;;;11.27;;
62693;SDS011;48759;52.544;13.418;2022-10-26T09:05:48;15.47;;;10.70;;
62693;SDS011;48759;52.544;13.418;2022-10-26T09:08:28;18.37;;;10.50;;
62693;SDS011;48759;52.544;13.418;2022-10-26T09:11:05;15.10;;;10.50;;
62693;SDS011;48759;52.544;13.418;2022-10-26T09:13:41;25.80;;;10.63;;
62693;SDS011;48759;52.544;13.418;2022-10-26T09:16:19;18.30;;;10.60;;
62693;SDS011;48759;52.544;13.418;2022-10-26T09:18:54;13.50;;;10.23;;
62693;SDS011;48759;52.544;13.418;2022-10-26T09:21:41;14.53;;;9.73;;
62693;SDS011;48759;52.544;13.418;2022-10-26T09:24:12;13.67;;;9.40;;
62693;SDS011;48759;52.544;13.418;2022-10-26T09:26:44;15.03;;;10.43;;
62693;SDS011;48759;52.544;13.418;2022-10-26T09:29:19;17.70;;;11.40;;
62693;SDS011;48759;52.544;13.418;2022-10-26T09:31:49;18.20;;;10.77;;
62693;SDS011;48759;52.544;13.418;2022-10-26T09:34:21;13.17;;;9.30;;
62693;SDS011;48759;52.544;13.418;2022-10-26T09:36:54;12.77;;;9.40;;
62693;SDS011;48759;52.544;13.418;2022-10-26T09:39:23;14.70;;;10.60;;
62693;SDS011;48759;52.544;13.418;2022-10-26T09:41:57;15.90;;;10.77;;
62693;SDS011;48759;52.544;13.418;2022-10-26T09:44:33;16.23;;;10.40;;
62693;SDS011;48759;52.544;13.418;2022-10-26T09:47:04;20.10;;;10.10;;
62693;SDS011;48759;52.544;13.418;2022-10-26T09:49:38;17.83;;;10.00;;
62693;SDS011;48759;52.544;13.418;2022-10-26T09:52:12;17.00;;;9.73;;
62693;SDS011;48759;52.544;13.418;2022-10-26T09:54:39;15.10;;;9.30;;
62693;SDS011;48759;52.544;13.418;2022-10-26T09:57:07;13.50;;;9.03;;
62693;SDS011;48759;52.544;13.418;2022-10-26T09:59:37;16.63;;;10.00;;
62693;SDS011;48759;52.544;13.418;2022-10-26T10:02:15;13.63;;;10.10;;
62693;SDS011;48759;52.544;13.418;2022-10-26T10:04:58;23.13;;;9.87;;
62693;SDS011;48759;52.544;13.418;2022-10-26T10:07:24;13.43;;;9.60;;
62693;SDS011;48759;52.544;13.418;2022-10-26T10:10:04;16.90;;;9.17;;
62693;SDS011;48759;52.544;13.418;2022-10-26T10:12:34;18.47;;;9.40;;
62693;SDS011;48759;52.544;13.418;2022-10-26T10:15:00;13.27;;;10.30;;
62693;SDS011;48759;52.544;13.418;2022-10-26T10:17:27;14.20;;;8.30;;
62693;SDS011;48759;52.544;13.418;2022-10-26T10:19:53;15.27;;;8.77;;
62693;SDS011;48759;52.544;13.418;2022-10-26T10:22:32;13.00;;;9.47;;
62693;SDS011;48759;52.544;13.418;2022-10-26T10:24:59;11.07;;;8.27;;
62693;SDS011;48759;52.544;13.418;2022-10-26T10:27:27;13.77;;;8.03;;
62693;SDS011;48759;52.544;13.418;2022-10-26T10:29:56;13.80;;;8.20;;
62693;SDS011;48759;52.544;13.418;2022-10-26T10:32:38;10.37;;;8.13;;
62693;SDS011;48759;52.544;13.418;2022-10-26T10:35:21;12.93;;;9.57;;
62693;SDS011;48759;52.544;13.418;2022-10-26T10:37:49;24.40;;;8.37;;
62693;SDS011;48759;52.544;13.418;2022-10-26T10:40:17;17.63;;;8.77;;
62693;SDS011;48759;52.544;13.418;2022-10-26T10:42:45;9.67;;;7.50;;
62693;SDS011;48759;52.544;13.418;2022-10-26T10:45:18;15.33;;;8.40;;
62693;SDS011;48759;52.544;13.418;2022-10-26T10:47:56;11.10;;;7.43;;
62693;SDS011;48759;52.544;13.418;2022-10-26T10:50:24;10.00;;;6.57;;
62693;SDS011;48759;52.544;13.418;2022-10-26T10:52:51;10.70;;;6.27;;
62693;SDS011;48759;52.544;13.418;2022-10-26T10:55:19;11.57;;;6.33;;
62693;SDS011;48759;52.544;13.418;2022-10-26T10:57:50;7.37;;;5.50;;
62693;SDS011;48759;52.544;13.418;2022-10-26T11:00:30;8.67;;;5.60;;
62693;SDS011;48759;52.544;13.418;2022-10-26T11:05:52;6.20;;;5.00;;
62693;SDS011;48759;52.544;13.418;2022-10-26T11:08:30;7.77;;;5.70;;
62693;SDS011;48759;52.544;13.418;2022-10-26T11:11:03;11.33;;;4.60;;
62693;SDS011;48759;52.544;13.418;2022-10-26T11:13:34;5.37;;;4.60;;
62693;SDS011;48759;52.544;13.418;2022-10-26T11:16:08;5.90;;;4.47;;
62693;SDS011;48759;52.544;13.418;2022-10-26T11:18:40;9.40;;;3.60;;
62693;SDS011;48759;52.544;13.418;2022-10-26T11:21:13;4.60;;;3.93;;
62693;SDS011;48759;52.544;13.418;2022-10-26T11:23:48;9.07;;;4.03;;
62693;SDS011;48759;52.544;13.418;2022-10-26T11:26:19;7.27;;;3.67;;
62693;SDS011;48759;52.544;13.418;2022-10-26T11:28:50;6.80;;;3.80;;
62693;SDS011;48759;52.544;13.418;2022-10-26T11:31:26;9.57;;;3.80;;
62693;SDS011;48759;52.544;13.418;2022-10-26T11:34:01;8.80;;;4.10;;
62693;SDS011;48759;52.544;13.418;2022-10-26T11:36:38;8.30;;;3.80;;
62693;SDS011;48759;52.544;13.418;2022-10-26T11:39:10;9.40;;;4.47;;
62693;SDS011;48759;52.544;13.418;2022-10-26T11:41:46;6.90;;;3.70;;
62693;SDS011;48759;52.544;13.418;2022-10-26T11:44:17;5.70;;;3.90;;
62693;SDS011;48759;52.544;13.418;2022-10-26T11:46:49;9.30;;;3.50;;
62693;SDS011;48759;52.544;13.418;2022-10-26T11:49:20;6.70;;;3.63;;
62693;SDS011;48759;52.544;13.418;2022-10-26T11:51:54;8.17;;;3.43;;
62693;SDS011;48759;52.544;13.418;2022-10-26T11:54:25;9.13;;;4.10;;
62693;SDS011;48759;52.544;13.418;2022-10-26T11:56:57;8.70;;;3.70;;
62693;SDS011;48759;52.544;13.418;2022-10-26T11:59:25;5.67;;;3.70;;
62693;SDS011;48759;52.544;13.418;2022-10-26T12:01:57;4.80;;;3.60;;
62693;SDS011;48759;52.544;13.418;2022-10-26T12:04:30;9.73;;;3.47;;
62693;SDS011;48759;52.544;13.418;2022-10-26T12:07:01;6.07;;;3.50;;
62693;SDS011;48759;52.544;13.418;2022-10-26T12:09:36;4.70;;;3.70;;
62693;SDS011;48759;52.544;13.418;2022-10-26T12:12:07;5.53;;;3.40;;
62693;SDS011;48759;52.544;13.418;2022-10-26T12:14:38;4.60;;;2.93;;
62693;SDS011;48759;52.544;13.418;2022-10-26T12:17:11;9.13;;;3.30;;
62693;SDS011;48759;52.544;13.418;2022-10-26T12:19:43;5.30;;;3.30;;
62693;SDS011;48759;52.544;13.418;2022-10-26T12:22:15;9.60;;;2.70;;
62693;SDS011;48759;52.544;13.418;2022-10-26T12:24:44;11.40;;;3.00;;
62693;SDS011;48759;52.544;13.418;2022-10-26T12:27:30;7.53;;;4.00;;
62693;SDS011;48759;52.544;13.418;2022-10-26T12:30:14;4.27;;;3.00;;
62693;SDS011;48759;52.544;13.418;2022-10-26T12:32:52;9.30;;;3.33;;
62693;SDS011;48759;52.544;13.418;2022-10-26T12:38:26;3.10;;;2.80;;
62693;SDS011;48759;52.544;13.418;2022-10-26T12:41:11;8.00;;;3.30;;
62693;SDS011;48759;52.544;13.418;2022-10-26T12:43:43;3.83;;;2.97;;
62693;SDS011;48759;52.544;13.418;2022-10-26T12:52:41;8.20;;;3.30;;
62693;SDS011;48759;52.544;13.418;2022-10-26T12:58:07;3.50;;;2.97;;
62693;SDS011;48759;52.544;13.418;2022-10-26T13:00:45;13.00;;;3.03;;
62693;SDS011;48759;52.544;13.418;2022-10-26T13:03:22;5.50;;;3.20;;
62693;SDS011;48759;52.544;13.418;2022-10-26T13:06:02;4.67;;;3.13;;
62693;SDS011;48759;52.544;13.418;2022-10-26T13:08:44;6.80;;;2.80;;
62693;SDS011;48759;52.544;13.418;2022-10-26T13:11:13;11.33;;;3.30;;
62693;SDS011;48759;52.544;13.418;2022-10-26T13:13:42;4.17;;;2.90;;
62693;SDS011;48759;52.544;13.418;2022-10-26T13:16:11;5.90;;;3.20;;
62693;SDS011;48759;52.544;13.418;2022-10-26T13:18:41;7.50;;;3.53;;
62693;SDS011;48759;52.544;13.418;2022-10-26T13:21:12;5.27;;;2.90;;
62693;SDS011;48759;52.544;13.418;2022-10-26T13:23:41;3.97;;;2.80;;
62693;SDS011;48759;52.544;13.418;2022-10-26T13:26:11;6.33;;;3.73;;
62693;SDS011;48759;52.544;13.418;2022-10-26T13:28:44;8.00;;;3.53;;
62693;SDS011;48759;52.544;13.418;2022-10-26T13:31:16;6.80;;;4.27;;
62693;SDS011;48759;52.544;13.418;2022-10-26T13:34:03;14.23;;;5.70;;
62693;SDS011;48759;52.544;13.418;2022-10-26T13:36:37;19.83;;;12.27;;
62693;SDS011;48759;52.544;13.418;2022-10-26T13:39:10;11.70;;;8.00;;
62693;SDS011;48759;52.544;13.418;2022-10-26T13:41:43;8.20;;;6.17;;
62693;SDS011;48759;52.544;13.418;2022-10-26T13:44:13;9.40;;;6.50;;
62693;SDS011;48759;52.544;13.418;2022-10-26T13:46:47;12.97;;;6.00;;
62693;SDS011;48759;52.544;13.418;2022-10-26T13:49:20;9.33;;;6.50;;
62693;SDS011;48759;52.544;13.418;2022-10-26T13:51:52;11.40;;;6.27;;
62693;SDS011;48759;52.544;13.418;2022-10-26T13:54:22;6.83;;;4.83;;
62693;SDS011;48759;52.544;13.418;2022-10-26T13:56:58;12.20;;;6.80;;
62693;SDS011;48759;52.544;13.418;2022-10-26T13:59:31;6.33;;;4.57;;
62693;SDS011;48759;52.544;13.418;2022-10-26T14:02:05;6.50;;;4.53;;
62693;SDS011;48759;52.544;13.418;2022-10-26T14:04:44;8.80;;;4.13;;
62693;SDS011;48759;52.544;13.418;2022-10-26T14:07:12;8.10;;;4.10;;
62693;SDS011;48759;52.544;13.418;2022-10-26T14:09:49;10.33;;;5.20;;
62693;SDS011;48759;52.544;13.418;2022-10-26T14:12:19;11.03;;;5.07;;
62693;SDS011;48759;52.544;13.418;2022-10-26T14:14:46;4.90;;;4.33;;
62693;SDS011;48759;52.544;13.418;2022-10-26T14:17:17;14.83;;;7.17;;
62693;SDS011;48759;52.544;13.418;2022-10-26T14:19:45;10.70;;;6.10;;
62693;SDS011;48759;52.544;13.418;2022-10-26T14:22:16;9.23;;;5.30;;
62693;SDS011;48759;52.544;13.418;2022-10-26T14:24:51;7.87;;;4.60;;
62693;SDS011;48759;52.544;13.418;2022-10-26T14:27:19;10.50;;;5.67;;
62693;SDS011;48759;52.544;13.418;2022-10-26T14:29:49;9.43;;;6.23;;
62693;SDS011;48759;52.544;13.418;2022-10-26T14:32:20;63.03;;;34.17;;
62693;SDS011;48759;52.544;13.418;2022-10-26T14:34:48;25.63;;;14.60;;
62693;SDS011;48759;52.544;13.418;2022-10-26T14:37:19;17.53;;;10.20;;
62693;SDS011;48759;52.544;13.418;2022-10-26T14:39:52;17.50;;;9.50;;
62693;SDS011;48759;52.544;13.418;2022-10-26T14:42:24;7.03;;;3.67;;
62693;SDS011;48759;52.544;13.418;2022-10-26T14:44:55;16.43;;;6.40;;
62693;SDS011;48759;52.544;13.418;2022-10-26T14:47:22;12.43;;;7.53;;
62693;SDS011;48759;52.544;13.418;2022-10-26T14:49:50;10.47;;;6.80;;
62693;SDS011;48759;52.544;13.418;2022-10-26T14:52:19;17.13;;;9.43;;
62693;SDS011;48759;52.544;13.418;2022-10-26T14:54:56;16.27;;;7.67;;